Time;durP1;ratioP1;P1;durP2;ratioP2;P2;SDS_P1;SDS_P2;PMS_P1;PMS_P2;Temp;Humidity;BMP_temperature;BMP_pressure;BME280_temperature;BME280_humidity;BME280_pressure;Samples;Min_cycle;Max_cycle;Signal;HPM_P1;HPM_P2
2021/12/12 00:04:51;;;;;;;109.60;72.50;;;;;;;-2.12;84.32;100028.46;431783;1309;142928;-66
2021/12/12 00:14:58;;;;;;;111.50;69.90;;;;;;;-2.14;84.27;100032.25;428043;1308;143198;-67
2021/12/12 00:25:07;;;;;;;105.00;67.90;;;;;;;-2.19;84.40;100034.67;429479;1306;142402;-66
2021/12/12 00:35:15;;;;;;;99.40;65.60;;;;;;;-2.22;84.39;100034.01;432612;1309;142689;-66
2021/12/12 00:45:23;;;;;;;99.10;67.10;;;;;;;-2.18;84.32;100030.05;434194;1311;142674;-66
2021/12/12 00:55:30;;;;;;;103.10;65.70;;;;;;;-2.12;84.46;100022.80;422149;1312;141991;-66
2021/12/12 01:05:35;;;;;;;105.70;66.60;;;;;;;-2.04;84.33;100020.02;427527;1312;144795;-66
2021/12/12 01:15:48;;;;;;;101.60;62.80;;;;;;;-2.01;84.20;100032.52;424269;1310;142731;-66
2021/12/12 01:25:56;;;;;;;97.90;60.30;;;;;;;-1.88;84.80;100029.37;435310;1312;142970;-67
2021/12/12 01:36:06;;;;;;;93.30;58.60;;;;;;;-1.77;84.55;100029.98;433336;1310;142560;-65
2021/12/12 01:46:19;;;;;;;92.60;60.40;;;;;;;-1.69;84.55;100030.12;424705;1310;142982;-65
2021/12/12 01:56:30;;;;;;;87.90;55.30;;;;;;;-1.68;84.67;100031.65;427704;1312;141906;-67
2021/12/12 02:06:36;;;;;;;86.40;56.20;;;;;;;-1.82;84.55;100039.13;429958;1312;142373;-66
2021/12/12 02:16:43;;;;;;;;;;;;;;;-1.91;84.62;100046.73;433581;1313;141746;-66
2021/12/12 02:37:16;;;;;;;109.50;67.10;;;;;;;-1.89;84.93;100055.30;432929;1307;142304;-66
2021/12/12 02:47:32;;;;;;;104.40;65.30;;;;;;;-1.89;84.93;100059.06;430881;1312;145005;-63
2021/12/12 02:57:38;;;;;;;111.00;64.90;;;;;;;-1.93;84.78;100060.80;433237;1310;143018;-64
2021/12/12 03:07:46;;;;;;;107.90;60.30;;;;;;;-1.91;84.92;100061.82;434918;1313;142064;-70
2021/12/12 03:17:54;;;;;;;99.30;58.20;;;;;;;-1.89;84.81;100063.19;424825;1310;143276;-70
2021/12/12 03:28:00;;;;;;;95.90;54.90;;;;;;;-1.87;85.01;100063.35;435637;1310;225164;-71
2021/12/12 03:38:08;;;;;;;97.80;57.60;;;;;;;-1.81;84.89;100082.88;422315;1307;143281;-73
2021/12/12 03:48:19;;;;;;;86.70;52.50;;;;;;;-1.84;84.58;100111.21;427881;1312;142251;-70
2021/12/12 03:58:26;;;;;;;86.40;45.00;;;;;;;-1.93;84.57;100126.70;423323;1312;143920;-71
2021/12/12 04:08:35;;;;;;;81.40;45.10;;;;;;;-2.11;84.57;100145.98;423370;1310;141372;-71
2021/12/12 04:18:43;;;;;;;88.20;47.80;;;;;;;-2.45;84.51;100158.92;434649;1307;144412;-71
2021/12/12 04:28:57;;;;;;;80.80;44.90;;;;;;;-2.64;84.75;100181.23;433091;1306;142179;-70
2021/12/12 04:39:10;;;;;;;75.90;43.40;;;;;;;-2.62;85.03;100182.23;422735;1310;142793;-72
2021/12/12 04:59:47;;;;;;;76.50;41.20;;;;;;;-2.69;85.18;100193.40;435072;1310;144530;-70
2021/12/12 05:09:58;;;;;;;66.60;38.60;;;;;;;-2.81;85.40;100199.21;434992;1312;142562;-71
2021/12/12 05:20:10;;;;;;;59.60;32.40;;;;;;;-2.88;85.49;100196.30;435095;1315;142576;-70
2021/12/12 05:30:20;;;;;;;49.50;27.90;;;;;;;-3.00;85.57;100198.85;427172;1315;142828;-69
2021/12/12 05:40:30;;;;;;;62.70;32.50;;;;;;;-3.35;85.42;100207.84;418607;1313;141579;-70
2021/12/12 05:50:37;;;;;;;58.30;30.90;;;;;;;-3.55;85.87;100218.05;435059;1312;142849;-71
2021/12/12 06:00:45;;;;;;;64.50;33.30;;;;;;;-3.53;86.19;100216.00;426456;1309;142251;-70
2021/12/12 06:10:53;;;;;;;48.10;27.40;;;;;;;-3.50;86.17;100229.02;433795;1313;142105;-71
2021/12/12 06:20:59;;;;;;;51.10;25.40;;;;;;;-3.64;86.06;100237.19;424811;1313;144424;-70
2021/12/12 06:31:06;;;;;;;48.30;27.60;;;;;;;-3.56;86.21;100240.48;426505;1312;142899;-71
2021/12/12 06:41:14;;;;;;;51.80;26.90;;;;;;;-3.55;86.30;100247.66;435772;1310;141823;-72
2021/12/12 06:51:21;;;;;;;56.40;26.30;;;;;;;-3.53;86.34;100252.81;433824;1312;143689;-71
2021/12/12 07:01:31;;;;;;;54.40;27.80;;;;;;;-3.48;86.23;100267.72;434943;1311;142185;-72
2021/12/12 07:11:40;;;;;;;46.40;23.60;;;;;;;-3.36;86.58;100276.16;426204;1315;142236;-71
2021/12/12 07:21:47;;;;;;;53.70;26.00;;;;;;;-3.26;86.37;100286.83;434087;1314;142717;-72
2021/12/12 07:31:51;;;;;;;;;;;;;;;-3.17;86.20;100307.92;424422;1312;142605;-71
2021/12/12 07:42:00;;;;;;;52.70;23.50;;;;;;;-3.04;86.09;100308.30;418431;1313;129421;-72
2021/12/12 07:52:09;;;;;;;42.30;22.30;;;;;;;-2.97;86.02;100304.05;422678;1311;142786;-73
2021/12/12 08:02:17;;;;;;;48.90;24.40;;;;;;;-2.85;85.84;100309.23;425058;1311;142113;-70
2021/12/12 08:12:28;;;;;;;43.20;25.40;;;;;;;-2.68;85.55;100320.91;425029;1312;143051;-71
2021/12/12 08:22:35;;;;;;;41.90;24.60;;;;;;;-2.68;85.33;100328.45;426300;1312;142081;-71
2021/12/12 08:32:43;;;;;;;40.00;21.40;;;;;;;-2.78;84.99;100337.69;426284;1312;141685;-72
2021/12/12 08:42:50;;;;;;;44.60;21.50;;;;;;;-2.85;85.07;100342.64;428507;1310;142119;-70
2021/12/12 08:52:58;;;;;;;44.90;22.60;;;;;;;-2.68;85.02;100355.20;429186;1309;142736;-71
2021/12/12 09:03:06;;;;;;;36.00;20.30;;;;;;;-2.53;84.76;100346.31;430446;1312;143503;-70
2021/12/12 09:13:18;;;;;;;39.50;18.40;;;;;;;-2.48;84.54;100340.67;435183;1310;142602;-71
2021/12/12 09:23:31;;;;;;;32.80;19.80;;;;;;;-2.37;84.27;100349.60;434034;1312;142569;-72
2021/12/12 09:33:46;;;;;;;38.50;20.20;;;;;;;-2.26;84.04;100346.86;431160;1312;142573;-73
2021/12/12 09:44:16;;;;;;;37.20;20.60;;;;;;;-2.11;83.91;100352.70;435093;1311;155346;-72
2021/12/12 09:54:38;;;;;;;39.20;21.90;;;;;;;-1.95;83.51;100346.71;434372;1307;142003;-70
2021/12/12 10:05:05;;;;;;;43.20;23.60;;;;;;;-1.90;83.45;100339.67;424769;1310;144528;-73
2021/12/12 10:15:13;;;;;;;;;;;;;;;-1.80;83.10;100313.91;423942;1309;142462;-69
2021/12/12 10:25:23;;;;;;;52.70;27.30;;;;;;;-1.64;83.12;100309.93;434603;1311;127928;-68
2021/12/12 10:35:35;;;;;;;59.30;34.40;;;;;;;-1.33;82.92;100305.55;435508;1310;141617;-68
2021/12/12 10:45:49;;;;;;;62.50;33.40;;;;;;;-1.25;82.57;100310.33;424507;1310;142439;-62
2021/12/12 10:56:05;;;;;;;59.90;34.60;;;;;;;-1.18;82.18;100303.27;434022;1306;143719;-62
2021/12/12 11:06:18;;;;;;;66.90;36.00;;;;;;;-1.04;82.04;100307.67;432570;1310;142709;-60
2021/12/12 11:16:31;;;;;;;51.30;29.90;;;;;;;-1.06;81.92;100308.36;431170;1310;142613;-60
2021/12/12 11:26:42;;;;;;;54.30;30.80;;;;;;;-1.12;81.59;100303.75;429955;1312;142476;-61
2021/12/12 11:37:08;;;;;;;52.40;28.50;;;;;;;-1.19;81.39;100301.02;422644;1312;337750;-60
2021/12/12 11:47:31;;;;;;;54.60;27.60;;;;;;;-1.27;81.17;100308.10;427556;1310;142449;-62
2021/12/12 11:57:47;;;;;;;42.80;25.50;;;;;;;-1.35;81.19;100305.73;433437;1309;142835;-62
2021/12/12 12:08:02;;;;;;;31.60;17.60;;;;;;;-1.30;81.03;100300.04;435294;1309;144940;-62
2021/12/12 12:18:22;;;;;;;51.50;27.90;;;;;;;-1.34;80.95;100293.18;420307;1310;143000;-60
2021/12/12 12:28:35;;;;;;;55.60;28.30;;;;;;;-1.42;80.94;100291.33;435241;1306;142170;-60
2021/12/12 12:39:55;;;;;;;50.40;29.40;;;;;;;-1.51;80.79;100294.78;434942;1308;142762;-60
2021/12/12 12:50:36;;;;;;;60.80;31.60;;;;;;;-1.47;80.67;100289.11;433702;1309;143112;-63
2021/12/12 13:00:45;;;;;;;63.90;34.00;;;;;;;-1.72;80.41;100288.15;428679;1309;143090;-62
2021/12/12 13:10:52;;;;;;;58.80;35.80;;;;;;;-1.89;80.76;100283.88;434822;1307;142984;-63
2021/12/12 13:21:19;;;;;;;62.30;34.70;;;;;;;-1.99;80.80;100289.90;434245;1310;146135;-62
2021/12/12 13:31:35;;;;;;;64.10;37.50;;;;;;;-2.20;80.89;100309.98;424826;1309;142586;-62
2021/12/12 13:41:53;;;;;;;58.80;36.00;;;;;;;-2.40;80.97;100311.52;421799;1310;142062;-62
2021/12/12 13:52:07;;;;;;;53.70;27.00;;;;;;;-2.79;81.14;100316.95;429874;1307;142428;-62
2021/12/12 14:02:16;;;;;;;45.20;22.40;;;;;;;-3.05;81.53;100309.52;434970;1312;142129;-62
2021/12/12 14:12:26;;;;;;;51.30;25.00;;;;;;;-3.12;81.99;100300.39;434656;1309;142174;-62
2021/12/12 14:22:33;;;;;;;56.10;28.10;;;;;;;-3.14;82.14;100300.56;434222;1309;196866;-62
2021/12/12 14:32:42;;;;;;;53.30;27.90;;;;;;;-3.30;82.29;100314.36;428394;1310;141777;-63
2021/12/12 14:42:52;;;;;;;54.10;32.30;;;;;;;-3.35;82.56;100312.13;428512;1310;142541;-63
2021/12/12 14:53:04;;;;;;;66.40;33.10;;;;;;;-3.39;82.76;100318.61;419491;1309;142889;-63
2021/12/12 15:03:13;;;;;;;56.20;30.40;;;;;;;-3.45;83.01;100329.02;423806;1307;146507;-63
2021/12/12 15:13:21;;;;;;;60.70;32.30;;;;;;;-3.50;83.15;100319.58;428670;1310;142584;-62
2021/12/12 15:23:29;;;;;;;70.20;35.10;;;;;;;-3.53;83.27;100319.73;434655;1312;142846;-64
2021/12/12 15:33:38;;;;;;;60.80;34.90;;;;;;;-3.47;83.48;100329.70;432956;1311;143019;-63
2021/12/12 15:43:53;;;;;;;58.40;29.60;;;;;;;-3.42;83.53;100348.55;435403;1306;142709;-63
2021/12/12 15:54:02;;;;;;;58.30;29.10;;;;;;;-3.47;83.47;100344.93;434864;1310;143722;-64
2021/12/12 16:04:08;;;;;;;56.20;29.90;;;;;;;-3.49;83.61;100349.20;435401;1306;144649;-63
2021/12/12 16:14:18;;;;;;;63.60;35.10;;;;;;;-3.43;83.67;100341.54;434067;1310;143146;-63
2021/12/12 16:24:34;;;;;;;46.50;26.20;;;;;;;-3.52;83.55;100337.20;434341;1309;143298;-63
2021/12/12 16:34:43;;;;;;;48.10;25.30;;;;;;;-3.50;83.83;100332.23;435390;1310;144009;-63
2021/12/12 16:44:56;;;;;;;51.80;26.10;;;;;;;-3.54;83.52;100338.39;435543;1306;142448;-63
2021/12/12 16:55:12;;;;;;;68.10;33.20;;;;;;;-3.56;83.64;100329.31;434261;1309;142531;-63
2021/12/12 17:05:26;;;;;;;61.80;31.40;;;;;;;-3.59;83.66;100330.83;435590;1309;142669;-62
2021/12/12 17:15:34;;;;;;;47.60;28.40;;;;;;;-3.66;83.59;100338.32;425894;1310;143502;-63
2021/12/12 17:25:44;;;;;;;48.10;26.60;;;;;;;-3.80;83.59;100325.41;434028;1310;143159;-66
2021/12/12 17:35:54;;;;;;;49.10;27.10;;;;;;;-4.01;83.62;100328.33;433461;1309;142742;-63
2021/12/12 17:46:33;;;;;;;61.20;31.00;;;;;;;-4.18;83.65;100324.42;434411;1309;198893;-65
2021/12/12 17:56:46;;;;;;;54.30;27.80;;;;;;;-4.35;83.97;100333.34;434481;1312;143028;-65
2021/12/12 18:06:56;;;;;;;55.10;32.30;;;;;;;-4.38;83.97;100326.14;433407;1312;142183;-65
2021/12/12 18:17:12;;;;;;;65.80;30.70;;;;;;;-4.42;84.02;100318.92;433139;1310;142133;-65
2021/12/12 18:27:18;;;;;;;;;;;;;;;-4.52;84.10;100317.29;432996;1311;143061;-65
2021/12/12 18:37:28;;;;;;;49.80;24.90;;;;;;;-4.60;84.09;100314.14;434859;1312;128113;-67
2021/12/12 18:47:37;;;;;;;56.70;27.00;;;;;;;-4.71;84.19;100313.52;427523;1310;142073;-66
2021/12/12 18:57:47;;;;;;;44.00;21.80;;;;;;;-4.69;84.28;100327.73;434112;1312;142774;-65
2021/12/12 19:08:08;;;;;;;47.30;22.70;;;;;;;-4.83;84.06;100334.92;435165;1312;153796;-65
2021/12/12 19:18:17;;;;;;;48.40;25.90;;;;;;;-4.96;84.14;100342.46;432725;1312;142357;-66
2021/12/12 19:28:31;;;;;;;50.30;28.20;;;;;;;-4.96;84.32;100354.23;434650;1312;298659;-65
2021/12/12 19:38:41;;;;;;;50.10;24.90;;;;;;;-5.05;84.19;100348.34;433592;1312;142172;-65
2021/12/12 19:48:49;;;;;;;45.90;25.10;;;;;;;-5.09;84.16;100342.31;432703;1312;142898;-66
2021/12/12 19:58:57;;;;;;;48.80;26.10;;;;;;;-5.25;84.22;100343.65;424365;1312;142356;-65
2021/12/12 20:09:10;;;;;;;48.00;27.40;;;;;;;-5.25;84.51;100360.04;432711;1312;142009;-63
2021/12/12 20:19:20;;;;;;;41.60;22.10;;;;;;;-5.23;84.37;100358.02;430295;1312;142334;-63
2021/12/12 20:29:33;;;;;;;48.20;27.10;;;;;;;-5.28;84.32;100362.39;418418;1312;142966;-63
2021/12/12 20:39:46;;;;;;;54.00;26.20;;;;;;;-5.31;84.26;100385.91;433867;1312;143448;-63
2021/12/12 20:49:58;;;;;;;59.70;29.30;;;;;;;-5.35;84.22;100366.73;428117;1310;142296;-62
2021/12/12 21:00:12;;;;;;;66.60;34.70;;;;;;;-5.36;84.43;100343.17;431952;1310;142616;-64
2021/12/12 21:10:21;;;;;;;68.70;32.60;;;;;;;-5.35;84.38;100325.09;434458;1312;143206;-63
2021/12/12 21:20:35;;;;;;;62.20;33.20;;;;;;;-5.30;84.41;100319.36;426644;1314;141748;-62
2021/12/12 21:30:55;;;;;;;58.40;32.40;;;;;;;-5.23;84.53;100325.58;432852;1310;142851;-64
2021/12/12 21:41:04;;;;;;;59.30;32.00;;;;;;;-5.10;84.82;100330.86;427449;1312;143350;-63
2021/12/12 21:51:10;;;;;;;61.40;30.90;;;;;;;-4.99;85.14;100328.08;419401;1309;143970;-63
2021/12/12 22:01:19;;;;;;;59.50;30.20;;;;;;;-4.96;85.30;100319.06;425735;1313;143229;-63
2021/12/12 22:11:29;;;;;;;69.30;33.90;;;;;;;-4.93;85.37;100302.36;434867;1313;142193;-64
2021/12/12 22:21:38;;;;;;;63.10;31.80;;;;;;;-4.85;85.57;100310.30;434761;1312;142886;-63
2021/12/12 22:31:47;;;;;;;62.10;29.80;;;;;;;-4.79;85.51;100311.39;420479;1310;142871;-63
2021/12/12 22:41:57;;;;;;;59.10;29.20;;;;;;;-4.73;85.76;100321.70;430728;1312;143128;-62
2021/12/12 22:52:08;;;;;;;51.50;27.20;;;;;;;-4.63;86.00;100318.20;434904;1313;142505;-64
2021/12/12 23:02:18;;;;;;;52.90;27.50;;;;;;;-4.57;85.96;100296.91;435436;1312;144016;-64
2021/12/12 23:12:30;;;;;;;57.60;27.00;;;;;;;-4.48;86.05;100287.59;423455;1308;142671;-64
2021/12/12 23:22:40;;;;;;;63.70;32.60;;;;;;;-4.48;86.12;100300.92;435004;1312;142156;-63
2021/12/12 23:32:50;;;;;;;61.30;29.40;;;;;;;-4.42;86.29;100303.38;420951;1316;141993;-63
2021/12/12 23:43:11;;;;;;;62.70;30.80;;;;;;;-4.44;86.18;100277.71;419068;1315;153229;-63
2021/12/12 23:53:20;;;;;;;57.80;29.00;;;;;;;-4.59;86.03;100292.27;424090;1311;141500;-63
